createdAt,value
2017-09-10T00:01:05.125Z,99307
2017-09-10T00:03:35.007Z,99306
2017-09-10T00:06:04.910Z,99307
2017-09-10T00:08:35.762Z,99311
2017-09-10T00:11:05.751Z,99307
2017-09-10T00:13:36.079Z,99300
2017-09-10T00:16:06.027Z,99306
2017-09-10T00:18:36.379Z,99316
2017-09-10T00:21:06.283Z,99316
2017-09-10T00:23:36.618Z,99317
2017-09-10T00:26:06.481Z,99313
2017-09-10T00:28:36.725Z,99318
2017-09-10T00:31:06.594Z,99315
2017-09-10T00:33:36.807Z,99314
2017-09-10T00:36:06.693Z,99321
2017-09-10T00:38:37.006Z,99325
2017-09-10T00:41:07.057Z,99326
2017-09-10T00:43:37.290Z,99323
2017-09-10T00:46:07.211Z,99330
2017-09-10T00:48:37.482Z,99332
2017-09-10T00:51:07.349Z,99336
2017-09-10T00:53:37.664Z,99333
2017-09-10T00:56:07.530Z,99335
2017-09-10T00:58:37.756Z,99338
2017-09-10T01:01:07.612Z,99337
2017-09-10T01:03:37.887Z,99346
2017-09-10T01:06:07.766Z,99341
2017-09-10T01:08:38.015Z,99338
2017-09-10T01:11:07.877Z,99351
2017-09-10T01:13:38.239Z,99360
2017-09-10T01:16:08.102Z,99363
2017-09-10T01:18:37.994Z,99364
2017-09-10T01:21:07.877Z,99371
2017-09-10T01:23:37.877Z,99365
2017-09-10T01:26:08.236Z,99365
2017-09-10T01:28:38.097Z,99371
2017-09-10T01:31:07.981Z,99371
2017-09-10T01:33:37.945Z,99374
2017-09-10T01:36:07.826Z,99376
2017-09-10T01:38:38.067Z,99376
2017-09-10T01:41:07.950Z,99378
2017-09-10T01:43:38.248Z,99388
2017-09-10T01:46:08.116Z,99389
2017-09-10T01:48:38.003Z,99387
2017-09-10T01:51:07.922Z,99389
2017-09-10T01:53:37.794Z,99382
2017-09-10T01:56:08.114Z,99392
2017-09-10T01:58:37.989Z,99392
2017-09-10T02:01:08.243Z,99395
2017-09-10T02:03:38.111Z,99399
2017-09-10T02:06:07.990Z,99395
2017-09-10T02:08:37.864Z,99401
2017-09-10T02:11:07.733Z,99394
2017-09-10T02:13:38.017Z,99393
2017-09-10T02:16:07.893Z,99400
2017-09-10T02:18:38.150Z,99400
2017-09-10T02:21:08.009Z,99400
2017-09-10T02:23:37.896Z,99398
2017-09-10T02:26:07.769Z,99402
2017-09-10T02:28:37.646Z,99391
2017-09-10T02:31:07.496Z,99398
2017-09-10T02:33:37.385Z,99398
2017-09-10T02:36:07.603Z,99395
2017-09-10T02:38:37.502Z,99395
2017-09-10T02:41:07.778Z,99399
2017-09-10T02:43:37.649Z,99406
2017-09-10T02:46:07.942Z,99402
2017-09-10T02:48:37.823Z,99397
2017-09-10T02:51:08.040Z,99395
2017-09-10T02:53:37.902Z,99400
2017-09-10T02:56:08.121Z,99397
2017-09-10T02:58:37.990Z,99401
2017-09-10T03:01:07.870Z,99399
2017-09-10T03:03:37.736Z,99405
2017-09-10T03:06:07.603Z,99406
2017-09-10T03:08:37.884Z,99408
2017-09-10T03:11:07.758Z,99417
2017-09-10T03:13:37.998Z,99413
2017-09-10T03:16:07.892Z,99411
2017-09-10T03:18:38.129Z,99413
2017-09-10T03:21:07.987Z,99412
2017-09-10T03:23:37.869Z,99406
2017-09-10T03:26:07.730Z,99411
2017-09-10T03:28:38.515Z,99402
2017-09-10T03:31:08.737Z,99406
2017-09-10T03:33:38.586Z,99408
2017-09-10T03:36:08.864Z,99412
2017-09-10T03:38:38.728Z,99417
2017-09-10T03:41:09.018Z,99421
2017-09-10T03:43:38.987Z,99413
2017-09-10T03:46:09.194Z,99413
2017-09-10T03:48:39.054Z,99421
2017-09-10T03:51:08.950Z,99415
2017-09-10T03:53:38.825Z,99424
2017-09-10T03:56:08.691Z,99422
2017-09-10T03:58:38.910Z,99411
2017-09-10T04:01:08.775Z,99412
2017-09-10T04:03:39.030Z,99415
2017-09-10T04:06:08.853Z,99421
2017-09-10T04:08:39.075Z,99420
2017-09-10T04:11:08.940Z,99428
2017-09-10T04:13:39.212Z,99432
2017-09-10T04:16:09.065Z,99433
2017-09-10T04:18:38.922Z,99431
2017-09-10T04:21:08.780Z,99429
2017-09-10T04:23:38.638Z,99427
2017-09-10T04:26:08.872Z,99428
2017-09-10T04:28:38.738Z,99432
2017-09-10T04:31:08.939Z,99430
2017-09-10T04:33:38.957Z,99431
2017-09-10T04:36:09.181Z,99432
2017-09-10T04:38:39.059Z,99445
2017-09-10T04:41:08.936Z,99438
2017-09-10T04:43:38.820Z,99442
2017-09-10T04:46:08.726Z,99425
2017-09-10T04:48:39.023Z,99444
2017-09-10T04:51:08.883Z,99443
2017-09-10T04:53:39.137Z,99441
2017-09-10T04:56:09.007Z,99449
2017-09-10T04:58:39.311Z,99453
2017-09-10T05:01:09.214Z,99460
2017-09-10T05:03:39.518Z,99465
2017-09-10T05:06:09.409Z,99469
2017-09-10T05:08:39.611Z,99470
2017-09-10T05:11:09.508Z,99465
2017-09-10T05:13:39.889Z,99469
2017-09-10T05:16:09.795Z,99476
2017-09-10T05:18:40.026Z,99469
2017-09-10T05:21:09.907Z,99475
2017-09-10T05:23:40.126Z,99485
2017-09-10T05:26:09.987Z,99485
2017-09-10T05:28:39.978Z,99491
2017-09-10T05:31:09.824Z,99493
2017-09-10T05:33:39.732Z,99490
2017-09-10T05:36:10.040Z,99493
2017-09-10T05:38:39.906Z,99492
2017-09-10T05:41:10.128Z,99502
2017-09-10T05:43:40.003Z,99496
2017-09-10T05:46:09.937Z,99508
2017-09-10T05:48:39.828Z,99506
2017-09-10T05:51:09.702Z,99516
2017-09-10T05:53:39.950Z,99516
2017-09-10T05:56:09.805Z,99515
2017-09-10T05:58:40.072Z,99518
2017-09-10T06:01:09.922Z,99510
2017-09-10T06:03:40.335Z,99522
2017-09-10T06:06:10.206Z,99511
2017-09-10T06:08:40.119Z,99511
2017-09-10T06:11:09.978Z,99520
2017-09-10T06:13:39.865Z,99517
2017-09-10T06:16:10.194Z,99519
2017-09-10T06:18:40.060Z,99530
2017-09-10T06:21:10.334Z,99521
2017-09-10T06:23:40.258Z,99523
2017-09-10T06:26:10.592Z,99525
2017-09-10T06:28:40.484Z,99540
2017-09-10T06:31:11.010Z,99528
2017-09-10T06:33:40.855Z,99536
2017-09-10T06:36:11.059Z,99538
2017-09-10T06:38:41.050Z,99535
2017-09-10T06:41:11.387Z,99530
2017-09-10T06:43:41.365Z,99540
2017-09-10T06:46:11.739Z,99523
2017-09-10T06:48:41.625Z,99522
2017-09-10T06:51:11.942Z,99534
2017-09-10T06:53:41.813Z,99529
2017-09-10T06:56:12.040Z,99537
2017-09-10T06:58:41.903Z,99535
2017-09-10T07:01:12.217Z,99535
2017-09-10T07:03:42.100Z,99531
2017-09-10T07:06:11.983Z,99523
2017-09-10T07:08:41.876Z,99529
2017-09-10T07:11:11.771Z,99539
2017-09-10T07:13:42.092Z,99540
2017-09-10T07:16:11.937Z,99544
2017-09-10T07:18:42.166Z,99547
2017-09-10T07:21:12.042Z,99553
2017-09-10T07:23:41.930Z,99549
2017-09-10T07:26:11.824Z,99565
2017-09-10T07:28:41.705Z,99556
2017-09-10T07:31:11.990Z,99566
2017-09-10T07:33:41.855Z,99569
2017-09-10T07:36:12.642Z,99574
2017-09-10T07:38:42.506Z,99575
2017-09-10T07:41:12.810Z,99579
2017-09-10T07:43:42.676Z,99567
2017-09-10T07:46:13.003Z,99573
2017-09-10T07:48:42.903Z,99551
2017-09-10T07:51:13.140Z,99578
2017-09-10T07:53:43.004Z,99569
2017-09-10T07:56:12.901Z,99577
2017-09-10T07:58:42.794Z,99574
2017-09-10T08:01:12.658Z,99578
2017-09-10T08:03:43.652Z,99552
2017-09-10T08:06:13.612Z,99553
2017-09-10T08:08:43.587Z,99579
2017-09-10T08:11:13.539Z,99575
2017-09-10T08:13:43.618Z,99577
2017-09-10T08:16:14.362Z,99573
2017-09-10T08:18:44.326Z,99573
2017-09-10T08:21:14.198Z,99564
2017-09-10T08:23:44.034Z,99577
2017-09-10T08:26:13.933Z,99580
2017-09-10T08:28:44.323Z,99571
2017-09-10T08:31:14.205Z,99584
2017-09-10T08:33:44.088Z,99586
2017-09-10T08:36:13.979Z,99601
2017-09-10T08:38:43.843Z,99590
2017-09-10T08:41:14.259Z,99595
2017-09-10T08:43:44.146Z,99593
2017-09-10T08:46:14.342Z,99589
2017-09-10T08:48:44.271Z,99585
2017-09-10T08:51:14.583Z,99580
2017-09-10T08:53:44.496Z,99581
2017-09-10T08:56:14.769Z,99578
2017-09-10T08:58:44.654Z,99587
2017-09-10T09:01:14.920Z,99582
2017-09-10T09:03:44.896Z,99576
2017-09-10T09:06:15.208Z,99581
2017-09-10T09:08:45.126Z,99577
2017-09-10T09:11:15.031Z,99570
2017-09-10T09:13:45.442Z,99563
2017-09-10T09:16:15.342Z,99571
2017-09-10T09:18:45.603Z,99566
2017-09-10T09:21:15.499Z,99576
2017-09-10T09:23:45.816Z,99578
2017-09-10T09:26:15.717Z,99578
2017-09-10T09:28:46.060Z,99578
2017-09-10T09:31:16.023Z,99568
2017-09-10T09:33:46.284Z,99567
2017-09-10T09:36:16.226Z,99576
2017-09-10T09:38:46.564Z,99569
2017-09-10T09:41:16.494Z,99575
2017-09-10T09:43:46.866Z,99568
2017-09-10T09:46:16.757Z,99566
2017-09-10T09:48:47.002Z,99564
2017-09-10T09:51:16.904Z,99552
2017-09-10T09:53:47.153Z,99571
2017-09-10T09:56:17.061Z,99561
2017-09-10T09:58:47.000Z,99550
2017-09-10T10:01:16.958Z,99554
2017-09-10T10:03:46.835Z,99556
2017-09-10T10:06:17.221Z,99561
2017-09-10T10:08:47.098Z,99573
2017-09-10T10:11:17.515Z,99572
2017-09-10T10:13:47.518Z,99563
2017-09-10T10:16:17.787Z,99561
2017-09-10T10:18:47.804Z,99562
2017-09-10T10:21:18.459Z,99569
2017-09-10T10:23:48.445Z,99571
2017-09-10T10:26:18.854Z,99561
2017-09-10T10:28:48.732Z,99563
2017-09-10T10:31:19.120Z,99561
2017-09-10T10:33:49.012Z,99562
2017-09-10T10:36:19.279Z,99553
2017-09-10T10:38:49.385Z,99555
2017-09-10T10:41:19.898Z,99546
2017-09-10T10:43:50.036Z,99548
2017-09-10T10:46:20.452Z,99546
2017-09-10T10:48:50.421Z,99544
2017-09-10T10:51:20.709Z,99554
2017-09-10T10:53:50.639Z,99554
2017-09-10T10:56:20.911Z,99546
2017-09-10T10:58:50.838Z,99548
2017-09-10T11:01:21.151Z,99540
2017-09-10T11:03:51.047Z,99536
2017-09-10T11:06:21.010Z,99449
2017-09-10T11:08:50.920Z,99543
2017-09-10T11:11:20.844Z,99536
2017-09-10T11:13:51.279Z,99539
2017-09-10T11:16:21.256Z,99535
2017-09-10T11:18:51.585Z,99535
2017-09-10T11:21:21.502Z,99537
2017-09-10T11:23:51.904Z,99528
2017-09-10T11:26:21.952Z,99521
2017-09-10T11:28:52.157Z,99528
2017-09-10T11:31:22.353Z,99528
2017-09-10T11:33:52.685Z,99535
2017-09-10T11:36:22.701Z,99539
2017-09-10T11:38:53.118Z,99540
2017-09-10T11:41:23.141Z,99539
2017-09-10T11:43:53.403Z,99536
2017-09-10T11:46:23.304Z,99535
2017-09-10T11:48:53.595Z,99534
2017-09-10T11:51:23.490Z,99538
2017-09-10T11:53:53.875Z,99527
2017-09-10T11:56:23.725Z,99533
2017-09-10T11:58:53.978Z,99525
2017-09-10T12:01:23.976Z,99522
2017-09-10T12:03:54.239Z,99522
2017-09-10T12:06:25.120Z,99523
2017-09-10T12:08:55.357Z,99521
2017-09-10T12:11:25.327Z,99518
2017-09-10T12:13:55.706Z,99513
2017-09-10T12:16:25.658Z,99516
2017-09-10T12:18:55.939Z,99515
2017-09-10T12:21:25.830Z,99512
2017-09-10T12:23:56.152Z,99516
2017-09-10T12:26:26.152Z,99504
2017-09-10T12:28:56.118Z,99509
2017-09-10T12:31:26.038Z,99506
2017-09-10T12:33:58.139Z,99506
2017-09-10T12:36:28.475Z,99505
2017-09-10T12:38:58.395Z,99505
2017-09-10T12:41:28.661Z,99500
2017-09-10T12:43:58.574Z,99493
2017-09-10T12:46:28.890Z,99492
2017-09-10T12:48:58.766Z,99487
2017-09-10T12:51:29.039Z,99486
2017-09-10T12:54:06.662Z,99483
2017-09-10T12:56:37.048Z,99479
2017-09-10T12:59:07.160Z,99471
2017-09-10T13:01:37.776Z,99473
2017-09-10T13:04:07.738Z,99474
2017-09-10T13:06:38.065Z,99468
2017-09-10T13:09:08.002Z,99471
2017-09-10T13:11:38.353Z,99462
2017-09-10T13:14:08.361Z,99458
2017-09-10T13:16:38.788Z,99456
2017-09-10T13:19:08.672Z,99457
2017-09-10T13:21:38.947Z,99453
2017-09-10T13:24:08.833Z,99445
2017-09-10T13:26:39.215Z,99448
2017-09-10T13:29:09.197Z,99449
2017-09-10T13:31:39.509Z,99437
2017-09-10T13:34:09.687Z,99426
2017-09-10T13:36:39.963Z,99429
2017-09-10T13:39:09.839Z,99427
2017-09-10T13:41:40.203Z,99423
2017-09-10T13:44:10.131Z,99439
2017-09-10T13:46:40.461Z,99423
2017-09-10T13:49:10.367Z,99428
2017-09-10T13:51:40.651Z,99414
2017-09-10T13:54:10.561Z,99403
2017-09-10T13:56:40.895Z,99411
2017-09-10T13:59:10.852Z,99416
2017-09-10T14:01:41.160Z,99419
2017-09-10T14:04:11.144Z,99419
2017-09-10T14:06:41.386Z,99413
2017-09-10T14:09:11.377Z,99401
2017-09-10T14:11:41.738Z,99415
2017-09-10T14:14:11.601Z,99421
2017-09-10T14:16:42.190Z,99409
2017-09-10T14:19:12.282Z,99417
2017-09-10T14:21:42.575Z,99410
2017-09-10T14:24:12.466Z,99410
2017-09-10T14:26:42.967Z,99418
2017-09-10T14:29:12.925Z,99413
2017-09-10T14:31:43.395Z,99414
2017-09-10T14:34:13.622Z,99416
2017-09-10T14:36:44.125Z,99419
2017-09-10T14:39:14.053Z,99421
2017-09-10T14:41:44.357Z,99423
2017-09-10T14:44:14.321Z,99415
2017-09-10T14:46:44.600Z,99428
2017-09-10T14:49:14.485Z,99430
2017-09-10T14:51:44.938Z,99419
2017-09-10T14:54:14.825Z,99417
2017-09-10T14:56:45.040Z,99423
2017-09-10T14:59:14.962Z,99426
2017-09-10T15:01:45.235Z,99417
2017-09-10T15:04:16.153Z,99424
2017-09-10T15:06:46.613Z,99416
2017-09-10T15:09:16.506Z,99408
2017-09-10T15:11:46.998Z,99410
2017-09-10T15:14:16.905Z,99418
2017-09-10T15:16:47.249Z,99409
2017-09-10T15:19:17.214Z,99414
2017-09-10T15:21:47.499Z,99412
2017-09-10T15:24:17.581Z,99425
2017-09-10T15:26:47.854Z,99422
2017-09-10T15:29:17.757Z,99423
2017-09-10T15:31:48.048Z,99425
2017-09-10T15:34:18.015Z,99418
2017-09-10T15:36:48.411Z,99422
2017-09-10T15:39:18.476Z,99424
2017-09-10T15:41:48.768Z,99421
2017-09-10T15:44:18.634Z,99415
2017-09-10T15:46:49.008Z,99409
2017-09-10T15:49:18.928Z,99413
2017-09-10T15:51:49.170Z,99407
2017-09-10T15:54:19.119Z,99408
2017-09-10T15:56:49.101Z,99410
2017-09-10T15:59:19.792Z,99410
2017-09-10T16:01:49.702Z,99406
2017-09-10T16:04:20.048Z,99410
2017-09-10T16:06:51.069Z,99410
2017-09-10T16:09:21.442Z,99397
2017-09-10T16:11:51.341Z,99401
2017-09-10T16:14:21.611Z,99390
2017-09-10T16:16:51.575Z,99380
2017-09-10T16:19:21.845Z,99399
2017-09-10T16:21:52.186Z,99401
2017-09-10T16:24:22.416Z,99401
2017-09-10T16:26:52.362Z,99395
2017-09-10T16:29:22.885Z,99394
2017-09-10T16:31:52.822Z,99398
2017-09-10T16:34:23.189Z,99391
2017-09-10T16:36:53.136Z,99398
2017-09-10T16:39:23.534Z,99396
2017-09-10T16:41:53.492Z,99389
2017-09-10T16:44:23.866Z,99391
2017-09-10T16:46:53.772Z,99384
2017-09-10T16:49:24.120Z,99385
2017-09-10T16:51:54.097Z,99379
2017-09-10T16:54:24.351Z,99373
2017-09-10T16:56:54.282Z,99365
2017-09-10T16:59:24.576Z,99364
2017-09-10T17:01:54.451Z,99357
2017-09-10T17:04:24.883Z,99356
2017-09-10T17:06:54.788Z,99353
2017-09-10T17:09:26.064Z,99353
2017-09-10T17:11:55.969Z,99343
2017-09-10T17:14:26.228Z,99344
2017-09-10T17:16:56.138Z,99350
2017-09-10T17:19:26.030Z,99353
2017-09-10T17:21:55.943Z,99343
2017-09-10T17:24:25.865Z,99342
2017-09-10T17:26:55.752Z,99334
2017-09-10T17:29:25.648Z,99337
2017-09-10T17:31:55.932Z,99329
2017-09-10T17:34:25.837Z,99326
2017-09-10T17:36:56.139Z,99329
2017-09-10T17:39:26.168Z,99336
2017-09-10T17:41:56.434Z,99338
2017-09-10T17:44:26.326Z,99341
2017-09-10T17:46:56.632Z,99337
2017-09-10T17:49:26.564Z,99341
2017-09-10T17:51:56.961Z,99349
2017-09-10T17:54:26.928Z,99341
2017-09-10T17:56:57.206Z,99344
2017-09-10T17:59:27.057Z,99337
2017-09-10T18:01:57.021Z,99346
2017-09-10T18:04:26.981Z,99332
2017-09-10T18:06:56.885Z,99339
2017-09-10T18:09:26.963Z,99342
2017-09-10T18:11:57.089Z,99343
2017-09-10T18:14:27.549Z,99348
2017-09-10T18:16:57.597Z,99350
2017-09-10T18:19:28.691Z,99344
2017-09-10T18:21:58.652Z,99337
2017-09-10T18:24:28.942Z,99335
2017-09-10T18:26:59.694Z,99326
2017-09-10T18:29:30.085Z,99337
2017-09-10T18:32:00.074Z,99333
2017-09-10T18:34:30.360Z,99327
2017-09-10T18:37:00.294Z,99321
2017-09-10T18:39:31.066Z,99324
2017-09-10T18:42:01.042Z,99330
2017-09-10T18:44:31.543Z,99320
2017-09-10T18:47:01.686Z,99315
2017-09-10T18:49:32.909Z,99313
2017-09-10T18:52:03.068Z,99309
2017-09-10T18:54:33.450Z,99308
2017-09-10T18:57:03.436Z,99307
2017-09-10T18:59:33.799Z,99304
2017-09-10T19:02:03.769Z,99297
2017-09-10T19:04:34.145Z,99288
2017-09-10T19:07:04.253Z,99297
2017-09-10T19:09:34.738Z,99220
2017-09-10T19:12:04.762Z,99276
2017-09-10T19:14:36.100Z,99284
2017-09-10T19:17:06.546Z,99279
2017-09-10T19:19:37.007Z,99280
2017-09-10T19:22:07.051Z,99278
2017-09-10T19:24:37.491Z,99268
2017-09-10T19:27:07.465Z,99267
2017-09-10T19:29:37.792Z,99257
2017-09-10T19:32:07.774Z,99263
2017-09-10T19:34:38.054Z,99264
2017-09-10T19:37:08.077Z,99265
2017-09-10T19:39:38.458Z,99259
2017-09-10T19:42:08.381Z,99254
2017-09-10T19:44:39.483Z,99248
2017-09-10T19:47:09.410Z,99249
2017-09-10T19:49:39.769Z,99246
2017-09-10T19:52:09.710Z,99244
2017-09-10T19:54:40.018Z,99245
2017-09-10T19:57:09.924Z,99237
2017-09-10T19:59:40.275Z,99230
2017-09-10T20:02:10.355Z,99247
2017-09-10T20:04:40.632Z,99235
2017-09-10T20:07:10.690Z,99228
2017-09-10T20:09:42.390Z,99229
2017-09-10T20:12:12.321Z,99232
2017-09-10T20:14:42.319Z,99231
2017-09-10T20:17:12.206Z,99226
2017-09-10T20:19:42.107Z,99223
2017-09-10T20:22:12.369Z,99228
2017-09-10T20:24:42.327Z,99230
2017-09-10T20:27:12.565Z,99222
2017-09-10T20:29:42.496Z,99217
2017-09-10T20:32:12.748Z,99217
2017-09-10T20:34:42.709Z,99214
2017-09-10T20:37:12.984Z,99208
2017-09-10T20:39:42.907Z,99205
2017-09-10T20:42:13.214Z,99210
2017-09-10T20:44:43.148Z,99210
2017-09-10T20:47:13.119Z,99207
2017-09-10T20:49:43.686Z,99198
2017-09-10T20:52:13.718Z,99195
2017-09-10T20:54:43.612Z,99185
2017-09-10T20:57:13.499Z,99189
2017-09-10T20:59:43.438Z,99189
2017-09-10T21:02:13.389Z,99171
2017-09-10T21:04:43.281Z,99186
2017-09-10T21:07:13.184Z,99184
2017-09-10T21:09:43.519Z,99178
2017-09-10T21:12:13.459Z,99168
2017-09-10T21:14:43.689Z,99175
2017-09-10T21:17:13.562Z,99170
2017-09-10T21:19:43.814Z,99174
2017-09-10T21:22:13.799Z,99174
2017-09-10T21:24:44.189Z,99168
2017-09-10T21:27:14.104Z,99166
2017-09-10T21:29:44.346Z,99163
2017-09-10T21:32:14.264Z,99156
2017-09-10T21:34:44.526Z,99152
2017-09-10T21:37:14.473Z,99099
2017-09-10T21:39:44.813Z,99150
2017-09-10T21:42:15.012Z,99152
2017-09-10T21:44:45.333Z,99142
2017-09-10T21:47:15.345Z,99140
2017-09-10T21:49:45.679Z,99138
2017-09-10T21:52:15.625Z,98856
2017-09-10T21:54:46.028Z,99126
2017-09-10T21:57:15.942Z,99115
2017-09-10T21:59:46.292Z,99131
2017-09-10T22:02:16.297Z,99123
2017-09-10T22:04:46.688Z,99128
2017-09-10T22:07:16.753Z,99129
2017-09-10T22:09:47.115Z,99138
2017-09-10T22:12:17.104Z,99132
2017-09-10T22:14:47.399Z,99059
2017-09-10T22:17:17.330Z,99121
2017-09-10T22:19:47.667Z,99117
2017-09-10T22:22:17.561Z,99112
2017-09-10T22:24:47.833Z,99104
2017-09-10T22:27:17.707Z,99110
2017-09-10T22:29:47.965Z,99101
2017-09-10T22:32:17.920Z,99109
2017-09-10T22:34:48.281Z,99106
2017-09-10T22:37:18.212Z,99106
2017-09-10T22:42:24.245Z,99102
2017-09-10T22:44:54.167Z,99097
2017-09-10T22:47:24.405Z,99098
2017-09-10T22:49:54.276Z,99091
2017-09-10T22:52:24.497Z,99084
2017-09-10T22:54:54.385Z,99086
2017-09-10T22:57:24.702Z,99091
2017-09-10T22:59:54.588Z,99084
2017-09-10T23:02:24.914Z,99075
2017-09-10T23:04:54.785Z,99078
2017-09-10T23:07:25.033Z,99072
2017-09-10T23:09:54.942Z,99062
2017-09-10T23:12:25.472Z,99070
2017-09-10T23:14:55.377Z,99063
2017-09-10T23:17:25.666Z,99055
2017-09-10T23:19:55.604Z,99061
2017-09-10T23:22:25.903Z,99055
2017-09-10T23:24:55.789Z,99044
2017-09-10T23:27:26.011Z,99051
2017-09-10T23:29:55.894Z,99042
2017-09-10T23:32:26.164Z,99033
2017-09-10T23:34:56.035Z,99025
2017-09-10T23:37:26.283Z,99041
2017-09-10T23:39:56.149Z,99026
2017-09-10T23:42:26.038Z,98923
2017-09-10T23:44:55.910Z,99023
2017-09-10T23:47:25.827Z,99019
2017-09-10T23:49:56.076Z,99018
2017-09-10T23:52:27.895Z,99009
2017-09-10T23:54:58.135Z,99010
2017-09-10T23:57:28.017Z,99008
2017-09-10T23:59:58.246Z,99012
